メインページ
METAR-TAF:

METAR-TAF

空港 :

グランドラピッズ, ミシガン州, アメリカ合衆国

緯度: 42-52-51N, 経度: 085-31-22W, 海抜: 242m

現時点の気象観測

当レポートは17分前の05:53(UTC)に作成
西/北西の風 4kt
気温 21°C
湿度 88%
気圧 1015 hPa
視程: 16.1km
晴天

METAR: KGRR 210553Z AUTO 29004KT 10SM CLR 21/19 A2996 RMK AO2 SLP139 T02110189 10233 20211 51001 $

時間: 02:10 (06:10 UTC)

予報

当レポートは40分前の05:30(UTC)に作成
予報は21日の 06時(UTC)から 22日の 06時(UTC)まで有効
変向風 5kt
視程: 10km
高度1100ftの千切れ雲あり
21日の 0900時(UTC)から
南西の風 4kt
視程: 8.0km
高度2500ftの千切れ雲あり
21日の 1100時(UTC)から
南西の風 5kt
視程: 3.2km
高度1000ftの曇り
21日の 1400時(UTC)から
西/南西の風 8kt
視程: 8.0km
高度3000ftの千切れ雲あり
21日の 1500時(UTC)から
西の風 9kt
視程: 10km
高度4000ftの千切れ雲あり
近辺でにわか雨
21日の 1800時(UTC)から
西/北西の風 11kt、最大22ktの突風を伴う
視程: 10km
高度5000ftの千切れ雲あり
22日の 0000時(UTC)から
北/北西の風 5kt
視程: 10km
高度20000ftの雲は散在している

TAF: KGRR 210530Z 2106/2206 VRB05KT P6SM BKN011 FM210900 22004KT 5SM BR BKN025 FM211100 23005KT 2SM BR OVC010 FM211400 25008KT 5SM BR BKN030 FM211500 27009KT P6SM VCSH BKN040 FM211800 30011G22KT P6SM BKN050 FM220000 33005KT P6SM SCT200

4,000以上の空港の気象観測と天気予報(METAR報とTAF報)

利用可能な観測所は地図上に黄色い丸と赤い丸で示す。

丸の上にカーソルを重ねると観測所名を参照できる。

次にクリックすると気象観測と天気予報を参照できる。

マップの切り替え:黒色「×」印の緑ボタンをクリックして拡大、「-」印の緑ボタンをクリックして縮小、緑色の三角印をクリックして隣りの地図に切り替え


METAR-TAF: